createdAt,value
2023-01-23T06:00:49.987Z,101977.75
2023-01-23T06:03:35.658Z,101976.94
2023-01-23T06:06:22.561Z,101986.59
2023-01-23T06:08:49.846Z,101984.06
2023-01-23T06:11:16.562Z,101992.78
2023-01-23T06:13:43.866Z,101993.66
2023-01-23T06:16:11.162Z,101999.91
2023-01-23T06:18:38.776Z,102002.56
2023-01-23T06:21:06.154Z,102006.91
2023-01-23T06:23:34.776Z,102005.22
2023-01-23T06:26:02.834Z,102007.78
2023-01-23T06:28:31.237Z,102005.16
2023-01-23T06:31:02.331Z,102016.63
2023-01-23T06:33:49.929Z,102028.00
2023-01-23T06:36:17.538Z,102028.09
2023-01-23T06:38:44.862Z,102035.94
2023-01-23T06:41:12.945Z,102037.75
2023-01-23T06:43:46.717Z,102036.00
2023-01-23T06:46:19.800Z,102036.09
2023-01-23T06:48:47.040Z,102040.38
2023-01-23T06:51:13.723Z,102044.84
2023-01-23T06:53:43.965Z,102042.22
2023-01-23T06:56:12.104Z,102047.47
2023-01-23T06:58:39.684Z,102047.47
2023-01-23T07:01:13.059Z,102067.59
2023-01-23T07:04:13.053Z,102066.63
2023-01-23T07:06:41.083Z,102071.03
2023-01-23T07:09:09.339Z,102067.47
2023-01-23T07:11:37.306Z,102077.22
2023-01-23T07:14:06.120Z,102078.97
2023-01-23T07:16:35.872Z,102082.56
2023-01-23T07:19:04.366Z,102077.22
2023-01-23T07:21:32.919Z,102083.22
2023-01-23T07:24:00.252Z,102082.31
2023-01-23T07:26:26.826Z,102077.94
2023-01-23T07:28:54.268Z,102083.97
2023-01-23T07:31:20.962Z,102083.97
2023-01-23T07:33:48.557Z,102097.97
2023-01-23T07:36:15.305Z,102094.56
2023-01-23T07:38:42.574Z,102095.50
2023-01-23T07:41:09.171Z,102092.88
2023-01-23T07:43:36.467Z,102092.81
2023-01-23T07:46:03.485Z,102092.03
2023-01-23T07:48:30.501Z,102104.34
2023-01-23T07:50:57.164Z,102093.84
2023-01-23T07:53:24.359Z,102095.66
2023-01-23T07:55:50.967Z,102102.59
2023-01-23T07:58:18.215Z,102100.75
2023-01-23T08:00:45.785Z,102097.25
2023-01-23T08:03:12.828Z,102105.25
2023-01-23T08:05:39.609Z,102106.16
2023-01-23T08:08:13.591Z,102107.03
2023-01-23T08:10:41.256Z,102117.53
2023-01-23T08:13:08.523Z,102119.31
2023-01-23T08:15:37.171Z,102113.22
2023-01-23T08:18:04.525Z,102122.00
2023-01-23T08:20:31.117Z,102128.19
2023-01-23T08:22:59.319Z,102127.28
2023-01-23T08:25:26.021Z,102126.44
2023-01-23T08:27:53.278Z,102127.41
2023-01-23T08:30:20.250Z,102118.50
2023-01-23T08:32:47.697Z,102122.03
2023-01-23T08:35:14.455Z,102117.72
2023-01-23T08:37:42.527Z,102116.03
2023-01-23T08:40:10.004Z,102122.13
2023-01-23T08:42:38.297Z,102116.88
2023-01-23T08:45:05.227Z,102124.78
2023-01-23T08:47:36.917Z,102121.38
2023-01-23T08:50:05.573Z,102131.94
2023-01-23T08:52:34.872Z,102128.50
2023-01-23T08:55:01.498Z,102128.41
2023-01-23T08:57:28.484Z,102124.88
2023-01-23T08:59:55.085Z,102123.16
2023-01-23T09:02:22.421Z,102129.31
2023-01-23T09:04:50.144Z,102122.31
2023-01-23T09:07:17.370Z,102124.06
2023-01-23T09:09:44.021Z,102133.75
2023-01-23T09:12:11.271Z,102135.53
2023-01-23T09:14:37.894Z,102139.00
2023-01-23T09:17:05.728Z,102138.81
2023-01-23T09:19:32.905Z,102136.19
2023-01-23T09:22:00.168Z,102138.06
2023-01-23T09:24:26.732Z,102146.88
2023-01-23T09:26:53.934Z,102143.53
2023-01-23T09:29:20.527Z,102147.13
2023-01-23T09:31:47.802Z,102152.44
2023-01-23T09:34:16.959Z,102153.41
2023-01-23T09:36:44.448Z,102157.78
2023-01-23T09:39:12.276Z,102157.00
2023-01-23T09:41:40.256Z,102151.72
2023-01-23T09:44:20.305Z,102163.13
2023-01-23T09:46:55.271Z,102161.38
2023-01-23T09:49:46.498Z,102162.31
2023-01-23T09:52:18.756Z,102170.25
2023-01-23T09:54:53.128Z,102164.22
2023-01-23T09:57:35.841Z,102155.56
2023-01-23T10:00:25.286Z,102160.66
2023-01-23T10:02:56.774Z,102164.22
2023-01-23T10:05:36.796Z,102164.38
2023-01-23T10:08:19.309Z,102172.25
2023-01-23T10:11:27.084Z,102173.19
2023-01-23T10:14:20.783Z,102155.63
2023-01-23T10:17:07.541Z,102167.06
2023-01-23T10:19:47.007Z,102165.25
2023-01-23T10:22:23.368Z,102162.59
2023-01-23T10:24:56.312Z,102162.59
2023-01-23T10:27:35.976Z,102160.00
2023-01-23T10:30:28.009Z,102162.63
2023-01-23T10:32:59.401Z,102166.25
2023-01-23T10:35:53.754Z,102161.91
2023-01-23T10:38:27.771Z,102159.38
2023-01-23T10:41:13.664Z,102166.34
2023-01-23T10:43:51.699Z,102167.31
2023-01-23T10:46:23.830Z,102173.44
2023-01-23T10:48:51.994Z,102164.75
2023-01-23T10:51:46.334Z,102158.63
2023-01-23T10:54:30.380Z,102152.50
2023-01-23T10:57:00.178Z,102164.81
2023-01-23T10:59:32.489Z,102157.72
2023-01-23T11:02:21.829Z,102156.84
2023-01-23T11:04:51.872Z,102151.44
2023-01-23T11:07:23.678Z,102140.09
2023-01-23T11:10:07.224Z,102147.16
2023-01-23T11:12:46.247Z,102139.19
2023-01-23T11:15:32.219Z,102141.91
2023-01-23T11:18:01.212Z,102134.97
2023-01-23T11:20:27.961Z,102135.03
2023-01-23T11:23:17.264Z,102132.34
2023-01-23T11:25:54.919Z,102135.91
2023-01-23T11:28:47.370Z,102132.41
2023-01-23T11:31:21.620Z,102140.38
2023-01-23T11:33:57.174Z,102137.81
2023-01-23T11:36:54.861Z,102137.75
2023-01-23T11:39:36.082Z,102138.69
2023-01-23T11:42:03.399Z,102140.47
2023-01-23T11:44:38.139Z,102135.22
2023-01-23T11:47:30.611Z,102133.50
2023-01-23T11:50:05.374Z,102137.00
2023-01-23T11:52:38.435Z,102135.22
2023-01-23T11:55:14.062Z,102131.78
2023-01-23T11:58:02.912Z,102128.34
2023-01-23T12:01:09.023Z,102128.44
2023-01-23T12:04:20.413Z,102130.19
2023-01-23T12:06:50.136Z,102122.31
2023-01-23T12:09:21.648Z,102123.19
2023-01-23T12:12:17.146Z,102127.63
2023-01-23T12:14:43.724Z,102121.56
2023-01-23T12:17:27.927Z,102121.56
2023-01-23T12:20:22.814Z,102119.84
2023-01-23T12:23:02.130Z,102124.22
2023-01-23T12:25:37.759Z,102123.38
2023-01-23T12:28:25.201Z,102125.28
2023-01-23T12:31:18.286Z,102119.00
2023-01-23T12:33:47.697Z,102124.38
2023-01-23T12:36:59.475Z,102120.84
2023-01-23T12:39:35.969Z,102126.16
2023-01-23T12:42:08.963Z,102121.72
2023-01-23T12:44:40.927Z,102123.59
2023-01-23T12:47:13.274Z,102120.94
2023-01-23T12:49:54.051Z,102116.59
2023-01-23T12:52:33.275Z,102119.34
2023-01-23T12:55:26.315Z,102121.03
2023-01-23T12:58:08.379Z,102120.09
2023-01-23T13:01:12.906Z,102134.00
2023-01-23T13:03:47.192Z,102133.91
2023-01-23T13:06:19.942Z,102136.41
2023-01-23T13:09:02.764Z,102135.47
2023-01-23T13:12:22.574Z,102138.94
2023-01-23T13:15:14.673Z,102143.25
2023-01-23T13:17:51.294Z,102145.00
2023-01-23T13:21:12.129Z,102142.25
2023-01-23T13:23:39.475Z,102145.81
2023-01-23T13:26:23.368Z,102148.38
2023-01-23T13:29:02.346Z,102157.97
2023-01-23T13:31:50.651Z,102151.81
2023-01-23T13:34:17.361Z,102156.19
2023-01-23T13:36:49.851Z,102152.72
2023-01-23T13:39:16.523Z,102158.88
2023-01-23T13:42:14.933Z,102156.34
2023-01-23T13:45:16.465Z,102156.34
2023-01-23T14:22:44.613Z,102189.06
2023-01-23T14:25:17.388Z,102190.75
2023-01-23T14:27:53.426Z,102187.22
2023-01-23T14:30:27.094Z,102191.63
2023-01-23T14:32:55.430Z,102191.63
2023-01-23T14:35:30.995Z,102196.06
2023-01-23T14:38:01.298Z,102186.34
2023-01-23T14:40:31.873Z,102189.91
2023-01-23T14:43:10.075Z,102195.16
2023-01-23T14:45:37.454Z,102198.63
2023-01-23T14:48:08.097Z,102189.00
2023-01-23T14:50:35.258Z,102192.53
2023-01-23T14:53:05.484Z,102190.81
2023-01-23T14:55:37.245Z,102208.34
2023-01-23T14:58:05.131Z,102210.13
2023-01-23T15:00:33.847Z,102206.59
2023-01-23T15:03:01.196Z,102204.03
2023-01-23T15:05:28.459Z,102204.97
2023-01-23T15:08:03.320Z,102202.28
2023-01-23T15:10:34.944Z,102198.72
2023-01-23T15:13:05.880Z,102198.81
2023-01-23T15:15:34.654Z,102198.72
2023-01-23T15:18:03.841Z,102208.31
2023-01-23T15:20:40.609Z,102212.72
2023-01-23T15:23:24.290Z,102200.44
2023-01-23T15:26:26.650Z,102206.50
2023-01-23T15:29:26.212Z,102207.28
2023-01-23T15:31:55.259Z,102192.47
2023-01-23T15:34:26.492Z,102186.28
2023-01-23T15:37:06.228Z,102183.72
2023-01-23T15:39:42.373Z,102182.84
2023-01-23T15:42:11.922Z,102186.34
2023-01-23T15:44:40.163Z,102182.78
2023-01-23T15:47:07.105Z,102179.19
2023-01-23T15:49:36.576Z,102178.25
2023-01-23T15:52:16.284Z,102172.09
2023-01-23T15:54:44.084Z,102179.03
2023-01-23T15:57:14.133Z,102191.25
2023-01-23T15:59:41.497Z,102189.47
2023-01-23T16:02:29.737Z,102196.47
2023-01-23T16:04:57.700Z,102193.84
2023-01-23T16:07:30.122Z,102199.19
2023-01-23T16:09:58.057Z,102186.00
2023-01-23T16:12:28.923Z,102190.31
2023-01-23T16:14:57.683Z,102179.78
2023-01-23T16:17:24.316Z,102175.41
2023-01-23T16:19:51.200Z,102170.94
2023-01-23T16:22:26.266Z,102174.34
2023-01-23T16:24:53.862Z,102179.63
2023-01-23T16:27:27.156Z,102182.25
2023-01-23T16:29:55.086Z,102183.06
2023-01-23T16:32:21.854Z,102185.66
2023-01-23T16:34:49.232Z,102187.44
2023-01-23T16:37:17.777Z,102187.34
2023-01-23T16:39:47.650Z,102187.31
2023-01-23T16:42:18.886Z,102182.84
2023-01-23T16:44:46.100Z,102184.53
2023-01-23T16:47:12.698Z,102188.03
2023-01-23T16:49:51.420Z,102182.69
2023-01-23T16:52:22.099Z,102183.50
2023-01-23T16:54:52.485Z,102186.94
2023-01-23T16:57:21.096Z,102185.22
2023-01-23T16:59:50.175Z,102190.47
2023-01-23T17:02:21.851Z,102186.91
2023-01-23T17:04:49.378Z,102199.19
2023-01-23T17:07:18.375Z,102199.09
2023-01-23T17:09:47.671Z,102192.16
2023-01-23T17:12:25.210Z,102193.84
2023-01-23T17:14:52.903Z,102194.72
2023-01-23T17:17:29.258Z,102201.72
2023-01-23T17:19:57.820Z,102200.78
2023-01-23T17:22:32.965Z,102206.97
2023-01-23T17:25:00.175Z,102202.50
2023-01-23T17:27:26.872Z,102198.16
2023-01-23T17:29:54.081Z,102197.25
2023-01-23T17:32:31.309Z,102199.88
2023-01-23T17:35:02.976Z,102205.94
2023-01-23T17:37:30.675Z,102199.03
2023-01-23T17:39:57.842Z,102194.66
2023-01-23T17:42:24.424Z,102199.03
2023-01-23T17:44:51.290Z,102193.69
2023-01-23T17:47:18.858Z,102195.44
2023-01-23T17:49:51.862Z,102202.28
2023-01-23T17:52:21.554Z,102200.63
2023-01-23T17:54:49.385Z,102198.84
2023-01-23T17:57:16.636Z,102205.00
2023-01-23T17:59:43.254Z,102198.84
2023-01-23T18:02:23.980Z,102193.47
2023-01-23T18:04:51.052Z,102202.22
2023-01-23T18:07:17.668Z,102198.72
2023-01-23T18:09:44.646Z,102203.97
2023-01-23T18:12:29.340Z,102207.47
2023-01-23T18:15:05.935Z,102213.66
2023-01-23T18:18:00.282Z,102216.28
2023-01-23T18:20:28.796Z,102217.97
2023-01-23T18:22:56.660Z,102216.28
2023-01-23T18:25:26.455Z,102214.41
2023-01-23T18:27:55.240Z,102226.72
2023-01-23T18:30:38.998Z,102221.53
2023-01-23T18:33:27.121Z,102219.88
2023-01-23T18:36:19.458Z,102214.59
2023-01-23T18:38:58.159Z,102216.31
2023-01-23T18:41:27.761Z,102215.28
2023-01-23T18:44:08.007Z,102212.63
2023-01-23T18:46:35.413Z,102221.34
2023-01-23T18:49:02.338Z,102220.41
2023-01-23T18:51:42.556Z,102214.31
2023-01-23T18:54:28.510Z,102209.94
2023-01-23T18:56:57.935Z,102211.59
2023-01-23T18:59:30.944Z,102222.13
2023-01-23T19:02:08.518Z,102214.13
2023-01-23T19:04:46.762Z,102222.84
2023-01-23T19:07:18.478Z,102214.16
2023-01-23T19:09:47.343Z,102227.34
2023-01-23T19:13:10.883Z,102226.47
2023-01-23T19:15:40.694Z,102236.97
2023-01-23T19:18:40.312Z,102236.91
2023-01-23T19:21:10.552Z,102246.47
2023-01-23T19:23:39.234Z,102235.06
2023-01-23T19:26:10.219Z,102232.38
2023-01-23T19:28:38.556Z,102233.16
2023-01-23T19:31:09.942Z,102248.03
2023-01-23T19:33:36.609Z,102241.91
2023-01-23T19:36:04.932Z,102255.84
2023-01-23T19:38:31.491Z,102256.72
2023-01-23T19:40:58.412Z,102259.31
2023-01-23T19:43:25.268Z,102266.25
2023-01-23T19:45:53.114Z,102271.59
2023-01-23T19:48:19.690Z,102275.88
2023-01-23T19:50:47.892Z,102269.78
2023-01-23T19:53:14.657Z,102269.84
2023-01-23T19:55:42.020Z,102280.53
2023-01-23T19:58:09.054Z,102277.91
2023-01-23T20:00:36.484Z,102279.63
2023-01-23T20:03:04.929Z,102277.16
2023-01-23T20:05:32.326Z,102282.41
2023-01-23T20:07:59.118Z,102287.66
2023-01-23T20:10:26.385Z,102286.00
2023-01-23T20:12:54.254Z,102282.50
2023-01-23T20:15:24.617Z,102284.16
2023-01-23T20:17:52.210Z,102295.66
2023-01-23T20:20:20.145Z,102294.84
2023-01-23T20:22:47.321Z,102292.22
2023-01-23T20:25:16.690Z,102282.50
2023-01-23T20:27:44.187Z,102289.44
2023-01-23T20:30:17.589Z,102285.03
2023-01-23T20:32:44.409Z,102285.06
2023-01-23T20:35:12.103Z,102286.00
2023-01-23T20:37:39.034Z,102287.75
2023-01-23T20:40:08.770Z,102289.44
2023-01-23T20:42:36.123Z,102289.44
2023-01-23T20:45:03.492Z,102281.47
2023-01-23T20:47:30.534Z,102280.59
2023-01-23T20:49:57.135Z,102283.25
2023-01-23T20:52:43.175Z,102285.03
2023-01-23T20:55:10.323Z,102283.16
2023-01-23T20:57:55.222Z,102280.59
2023-01-23T21:00:22.569Z,102280.59
2023-01-23T21:02:49.333Z,102277.06
2023-01-23T21:05:16.694Z,102277.16
2023-01-23T21:07:43.435Z,102267.34
2023-01-23T21:10:10.554Z,102274.53
2023-01-23T21:12:37.805Z,102272.00
2023-01-23T21:15:04.936Z,102276.31
2023-01-23T21:17:31.911Z,102270.09
2023-01-23T21:19:58.497Z,102277.25
2023-01-23T21:22:25.716Z,102275.50
2023-01-23T21:24:52.328Z,102279.03
2023-01-23T21:27:21.272Z,102281.66
2023-01-23T21:29:48.788Z,102272.88
